METAR Formatted Surface Weather Observation
Issued by NWS Raleigh/Durham, NC

Home | Current Version | Previous Version | Text Only | Print | Product List | Glossary On
Versions: 1 2 3 4 5 6 7 8 9
000
SAUS42 KRAH 201652
MTRRDU
METAR KRDU 201651Z 00000KT 10SM SCT023 BKN250 29/22 A3001 RMK AO2
SLP157 T02890217



USA.gov is the U.S. government's official web portal to all federal, state and local government web resources and services.